sensor_id;sensor_type;location;lat;lon;timestamp;P1;durP1;ratioP1;P2;durP2;ratioP2
68140;SDS011;54941;52.220;104.306;2023-05-10T00:01:41;9.65;;;4.20;;
68140;SDS011;54941;52.220;104.306;2023-05-10T00:04:08;8.68;;;4.82;;
68140;SDS011;54941;52.220;104.306;2023-05-10T00:06:34;14.35;;;5.43;;
68140;SDS011;54941;52.220;104.306;2023-05-10T00:09:00;9.30;;;4.47;;
68140;SDS011;54941;52.220;104.306;2023-05-10T00:11:27;8.98;;;4.03;;
68140;SDS011;54941;52.220;104.306;2023-05-10T00:13:55;8.50;;;4.55;;
68140;SDS011;54941;52.220;104.306;2023-05-10T00:16:21;9.05;;;5.05;;
68140;SDS011;54941;52.220;104.306;2023-05-10T00:18:47;8.50;;;4.40;;
68140;SDS011;54941;52.220;104.306;2023-05-10T00:21:14;15.57;;;6.95;;
68140;SDS011;54941;52.220;104.306;2023-05-10T00:23:40;8.95;;;4.82;;
68140;SDS011;54941;52.220;104.306;2023-05-10T00:26:06;8.02;;;4.18;;
68140;SDS011;54941;52.220;104.306;2023-05-10T00:28:32;8.90;;;4.43;;
68140;SDS011;54941;52.220;104.306;2023-05-10T00:31:00;9.05;;;5.00;;
68140;SDS011;54941;52.220;104.306;2023-05-10T00:33:26;10.45;;;4.85;;
68140;SDS011;54941;52.220;104.306;2023-05-10T00:35:53;8.23;;;4.53;;
68140;SDS011;54941;52.220;104.306;2023-05-10T00:38:19;9.35;;;4.57;;
68140;SDS011;54941;52.220;104.306;2023-05-10T00:40:45;9.15;;;4.55;;
68140;SDS011;54941;52.220;104.306;2023-05-10T00:43:12;9.00;;;4.88;;
68140;SDS011;54941;52.220;104.306;2023-05-10T00:45:38;10.60;;;4.93;;
68140;SDS011;54941;52.220;104.306;2023-05-10T00:48:07;9.85;;;4.85;;
68140;SDS011;54941;52.220;104.306;2023-05-10T00:50:34;11.90;;;4.78;;
68140;SDS011;54941;52.220;104.306;2023-05-10T00:53:00;11.20;;;4.68;;
68140;SDS011;54941;52.220;104.306;2023-05-10T00:55:28;8.98;;;4.63;;
68140;SDS011;54941;52.220;104.306;2023-05-10T00:57:55;7.45;;;4.72;;
68140;SDS011;54941;52.220;104.306;2023-05-10T01:00:21;8.93;;;4.53;;
68140;SDS011;54941;52.220;104.306;2023-05-10T01:02:48;9.88;;;4.30;;
68140;SDS011;54941;52.220;104.306;2023-05-10T01:05:15;8.30;;;4.60;;
68140;SDS011;54941;52.220;104.306;2023-05-10T01:07:42;8.40;;;4.25;;
68140;SDS011;54941;52.220;104.306;2023-05-10T01:10:08;12.50;;;4.68;;
68140;SDS011;54941;52.220;104.306;2023-05-10T01:12:35;10.50;;;4.40;;
68140;SDS011;54941;52.220;104.306;2023-05-10T01:15:04;9.57;;;4.90;;
68140;SDS011;54941;52.220;104.306;2023-05-10T01:17:32;9.15;;;5.18;;
68140;SDS011;54941;52.220;104.306;2023-05-10T01:20:00;8.70;;;5.07;;
68140;SDS011;54941;52.220;104.306;2023-05-10T01:22:43;9.75;;;4.60;;
68140;SDS011;54941;52.220;104.306;2023-05-10T01:25:37;8.32;;;4.70;;
68140;SDS011;54941;52.220;104.306;2023-05-10T01:31:28;11.15;;;5.07;;
68140;SDS011;54941;52.220;104.306;2023-05-10T01:34:06;10.55;;;5.15;;
68140;SDS011;54941;52.220;104.306;2023-05-10T01:36:38;9.60;;;5.03;;
68140;SDS011;54941;52.220;104.306;2023-05-10T01:39:11;8.10;;;4.88;;
68140;SDS011;54941;52.220;104.306;2023-05-10T01:41:48;9.57;;;4.65;;
68140;SDS011;54941;52.220;104.306;2023-05-10T01:44:20;11.32;;;5.43;;
68140;SDS011;54941;52.220;104.306;2023-05-10T01:46:57;9.40;;;5.47;;
68140;SDS011;54941;52.220;104.306;2023-05-10T01:49:32;10.18;;;4.82;;
68140;SDS011;54941;52.220;104.306;2023-05-10T01:54:33;9.52;;;4.75;;
68140;SDS011;54941;52.220;104.306;2023-05-10T01:57:05;9.63;;;4.97;;
68140;SDS011;54941;52.220;104.306;2023-05-10T01:59:34;10.15;;;4.93;;
68140;SDS011;54941;52.220;104.306;2023-05-10T02:02:02;9.45;;;4.78;;
68140;SDS011;54941;52.220;104.306;2023-05-10T02:04:31;7.90;;;4.63;;
68140;SDS011;54941;52.220;104.306;2023-05-10T02:07:00;12.05;;;5.30;;
68140;SDS011;54941;52.220;104.306;2023-05-10T02:09:27;15.80;;;5.40;;
68140;SDS011;54941;52.220;104.306;2023-05-10T02:11:55;11.68;;;4.90;;
68140;SDS011;54941;52.220;104.306;2023-05-10T02:14:25;10.25;;;5.32;;
68140;SDS011;54941;52.220;104.306;2023-05-10T02:16:53;10.07;;;5.47;;
68140;SDS011;54941;52.220;104.306;2023-05-10T02:19:21;13.50;;;5.68;;
68140;SDS011;54941;52.220;104.306;2023-05-10T02:22:10;12.27;;;5.40;;
68140;SDS011;54941;52.220;104.306;2023-05-10T02:24:38;8.98;;;5.30;;
68140;SDS011;54941;52.220;104.306;2023-05-10T02:27:05;10.30;;;5.70;;
68140;SDS011;54941;52.220;104.306;2023-05-10T02:29:33;10.75;;;4.97;;
68140;SDS011;54941;52.220;104.306;2023-05-10T02:32:01;8.63;;;4.75;;
68140;SDS011;54941;52.220;104.306;2023-05-10T02:34:28;10.40;;;4.80;;
68140;SDS011;54941;52.220;104.306;2023-05-10T02:36:56;11.43;;;4.80;;
68140;SDS011;54941;52.220;104.306;2023-05-10T02:39:25;11.18;;;5.20;;
68140;SDS011;54941;52.220;104.306;2023-05-10T02:41:53;7.63;;;4.60;;
68140;SDS011;54941;52.220;104.306;2023-05-10T02:44:21;10.60;;;5.03;;
68140;SDS011;54941;52.220;104.306;2023-05-10T02:46:49;10.80;;;5.50;;
68140;SDS011;54941;52.220;104.306;2023-05-10T02:49:15;12.02;;;5.10;;
68140;SDS011;54941;52.220;104.306;2023-05-10T02:51:43;10.70;;;4.90;;
68140;SDS011;54941;52.220;104.306;2023-05-10T02:54:15;10.98;;;5.45;;
68140;SDS011;54941;52.220;104.306;2023-05-10T02:56:47;12.50;;;5.47;;
68140;SDS011;54941;52.220;104.306;2023-05-10T02:59:16;10.73;;;5.40;;
68140;SDS011;54941;52.220;104.306;2023-05-10T03:01:43;12.02;;;5.40;;
68140;SDS011;54941;52.220;104.306;2023-05-10T03:04:09;12.00;;;6.10;;
68140;SDS011;54941;52.220;104.306;2023-05-10T03:06:35;12.35;;;5.75;;
68140;SDS011;54941;52.220;104.306;2023-05-10T03:09:02;12.63;;;6.65;;
68140;SDS011;54941;52.220;104.306;2023-05-10T03:11:32;10.93;;;5.93;;
68140;SDS011;54941;52.220;104.306;2023-05-10T03:14:13;13.75;;;5.95;;
68140;SDS011;54941;52.220;104.306;2023-05-10T03:16:52;10.38;;;5.13;;
68140;SDS011;54941;52.220;104.306;2023-05-10T03:19:26;8.65;;;4.90;;
68140;SDS011;54941;52.220;104.306;2023-05-10T03:21:56;11.07;;;5.63;;
68140;SDS011;54941;52.220;104.306;2023-05-10T03:24:25;13.30;;;5.50;;
68140;SDS011;54941;52.220;104.306;2023-05-10T03:26:53;12.75;;;5.25;;
68140;SDS011;54941;52.220;104.306;2023-05-10T03:29:26;9.38;;;4.70;;
68140;SDS011;54941;52.220;104.306;2023-05-10T03:31:53;10.70;;;4.90;;
68140;SDS011;54941;52.220;104.306;2023-05-10T03:34:23;15.55;;;7.10;;
68140;SDS011;54941;52.220;104.306;2023-05-10T03:36:49;21.90;;;9.30;;
68140;SDS011;54941;52.220;104.306;2023-05-10T03:39:16;21.50;;;9.30;;
68140;SDS011;54941;52.220;104.306;2023-05-10T03:41:42;15.82;;;7.47;;
68140;SDS011;54941;52.220;104.306;2023-05-10T03:44:08;12.75;;;6.93;;
68140;SDS011;54941;52.220;104.306;2023-05-10T03:46:36;9.07;;;5.43;;
68140;SDS011;54941;52.220;104.306;2023-05-10T03:49:02;12.45;;;5.68;;
68140;SDS011;54941;52.220;104.306;2023-05-10T03:51:29;14.38;;;6.88;;
68140;SDS011;54941;52.220;104.306;2023-05-10T03:53:55;15.02;;;6.43;;
68140;SDS011;54941;52.220;104.306;2023-05-10T03:56:21;12.25;;;6.22;;
68140;SDS011;54941;52.220;104.306;2023-05-10T03:58:47;11.38;;;6.05;;
68140;SDS011;54941;52.220;104.306;2023-05-10T04:01:14;10.77;;;6.70;;
68140;SDS011;54941;52.220;104.306;2023-05-10T04:03:42;11.32;;;6.20;;
68140;SDS011;54941;52.220;104.306;2023-05-10T04:06:08;13.52;;;6.47;;
68140;SDS011;54941;52.220;104.306;2023-05-10T04:08:34;15.23;;;6.20;;
68140;SDS011;54941;52.220;104.306;2023-05-10T04:11:06;13.88;;;7.18;;
68140;SDS011;54941;52.220;104.306;2023-05-10T04:13:33;12.85;;;6.85;;
68140;SDS011;54941;52.220;104.306;2023-05-10T04:16:00;14.43;;;6.85;;
68140;SDS011;54941;52.220;104.306;2023-05-10T04:18:26;11.75;;;6.95;;
68140;SDS011;54941;52.220;104.306;2023-05-10T04:20:54;12.48;;;6.50;;
68140;SDS011;54941;52.220;104.306;2023-05-10T04:23:20;12.95;;;6.90;;
68140;SDS011;54941;52.220;104.306;2023-05-10T04:25:47;11.68;;;6.40;;
68140;SDS011;54941;52.220;104.306;2023-05-10T04:28:13;16.48;;;7.43;;
68140;SDS011;54941;52.220;104.306;2023-05-10T04:30:39;11.25;;;4.88;;
68140;SDS011;54941;52.220;104.306;2023-05-10T04:33:05;11.80;;;5.70;;
68140;SDS011;54941;52.220;104.306;2023-05-10T04:35:32;10.82;;;5.60;;
68140;SDS011;54941;52.220;104.306;2023-05-10T04:38:00;9.93;;;5.75;;
68140;SDS011;54941;52.220;104.306;2023-05-10T04:40:26;12.02;;;5.72;;
68140;SDS011;54941;52.220;104.306;2023-05-10T04:42:52;11.00;;;5.68;;
68140;SDS011;54941;52.220;104.306;2023-05-10T04:45:18;12.15;;;4.82;;
68140;SDS011;54941;52.220;104.306;2023-05-10T04:47:45;8.25;;;4.78;;
68140;SDS011;54941;52.220;104.306;2023-05-10T04:50:11;8.93;;;5.60;;
68140;SDS011;54941;52.220;104.306;2023-05-10T04:52:37;12.10;;;5.65;;
68140;SDS011;54941;52.220;104.306;2023-05-10T04:55:05;9.02;;;5.63;;
68140;SDS011;54941;52.220;104.306;2023-05-10T04:57:32;13.88;;;5.82;;
68140;SDS011;54941;52.220;104.306;2023-05-10T04:59:59;13.27;;;5.85;;
68140;SDS011;54941;52.220;104.306;2023-05-10T05:02:26;11.55;;;5.75;;
68140;SDS011;54941;52.220;104.306;2023-05-10T05:04:52;12.55;;;6.20;;
68140;SDS011;54941;52.220;104.306;2023-05-10T05:07:18;8.27;;;5.40;;
68140;SDS011;54941;52.220;104.306;2023-05-10T05:09:44;11.15;;;6.22;;
68140;SDS011;54941;52.220;104.306;2023-05-10T05:12:12;13.52;;;7.03;;
68140;SDS011;54941;52.220;104.306;2023-05-10T05:14:38;16.63;;;6.72;;
68140;SDS011;54941;52.220;104.306;2023-05-10T05:17:05;18.15;;;7.28;;
68140;SDS011;54941;52.220;104.306;2023-05-10T05:19:31;18.70;;;7.60;;
68140;SDS011;54941;52.220;104.306;2023-05-10T05:21:57;19.48;;;7.28;;
68140;SDS011;54941;52.220;104.306;2023-05-10T05:24:24;19.70;;;7.75;;
68140;SDS011;54941;52.220;104.306;2023-05-10T05:26:50;23.55;;;9.35;;
68140;SDS011;54941;52.220;104.306;2023-05-10T05:29:18;18.92;;;8.48;;
68140;SDS011;54941;52.220;104.306;2023-05-10T05:31:44;20.58;;;7.90;;
68140;SDS011;54941;52.220;104.306;2023-05-10T05:34:11;21.35;;;8.52;;
68140;SDS011;54941;52.220;104.306;2023-05-10T05:36:37;25.08;;;11.52;;
68140;SDS011;54941;52.220;104.306;2023-05-10T05:39:03;23.13;;;10.60;;
68140;SDS011;54941;52.220;104.306;2023-05-10T05:41:29;32.33;;;14.68;;
68140;SDS011;54941;52.220;104.306;2023-05-10T05:43:56;21.17;;;8.95;;
68140;SDS011;54941;52.220;104.306;2023-05-10T05:46:23;16.92;;;7.72;;
68140;SDS011;54941;52.220;104.306;2023-05-10T05:48:50;15.77;;;7.63;;
68140;SDS011;54941;52.220;104.306;2023-05-10T05:51:16;20.02;;;7.90;;
68140;SDS011;54941;52.220;104.306;2023-05-10T05:53:42;18.80;;;8.80;;
68140;SDS011;54941;52.220;104.306;2023-05-10T05:56:09;23.50;;;8.50;;
68140;SDS011;54941;52.220;104.306;2023-05-10T05:58:35;18.10;;;7.72;;
68140;SDS011;54941;52.220;104.306;2023-05-10T06:01:01;18.95;;;8.65;;
68140;SDS011;54941;52.220;104.306;2023-05-10T06:03:29;15.15;;;7.40;;
68140;SDS011;54941;52.220;104.306;2023-05-10T06:05:55;14.13;;;7.30;;
68140;SDS011;54941;52.220;104.306;2023-05-10T06:08:21;15.07;;;7.80;;
68140;SDS011;54941;52.220;104.306;2023-05-10T06:10:48;13.27;;;7.03;;
68140;SDS011;54941;52.220;104.306;2023-05-10T06:13:14;13.38;;;6.78;;
68140;SDS011;54941;52.220;104.306;2023-05-10T06:15:40;13.32;;;6.68;;
68140;SDS011;54941;52.220;104.306;2023-05-10T06:18:06;15.95;;;6.75;;
68140;SDS011;54941;52.220;104.306;2023-05-10T06:20:34;14.77;;;7.20;;
68140;SDS011;54941;52.220;104.306;2023-05-10T06:23:01;17.80;;;7.95;;
68140;SDS011;54941;52.220;104.306;2023-05-10T06:25:27;16.00;;;7.72;;
68140;SDS011;54941;52.220;104.306;2023-05-10T06:27:53;26.67;;;9.00;;
68140;SDS011;54941;52.220;104.306;2023-05-10T06:30:20;18.67;;;7.75;;
68140;SDS011;54941;52.220;104.306;2023-05-10T06:32:46;20.10;;;8.27;;
68140;SDS011;54941;52.220;104.306;2023-05-10T06:35:12;19.92;;;7.90;;
68140;SDS011;54941;52.220;104.306;2023-05-10T06:37:40;16.13;;;8.57;;
68140;SDS011;54941;52.220;104.306;2023-05-10T06:40:07;15.35;;;7.28;;
68140;SDS011;54941;52.220;104.306;2023-05-10T06:42:34;20.38;;;7.90;;
68140;SDS011;54941;52.220;104.306;2023-05-10T06:45:00;17.35;;;7.20;;
68140;SDS011;54941;52.220;104.306;2023-05-10T06:47:27;19.02;;;7.10;;
68140;SDS011;54941;52.220;104.306;2023-05-10T06:49:53;16.88;;;7.63;;
68140;SDS011;54941;52.220;104.306;2023-05-10T06:52:19;16.77;;;8.00;;
68140;SDS011;54941;52.220;104.306;2023-05-10T06:54:47;17.20;;;8.15;;
68140;SDS011;54941;52.220;104.306;2023-05-10T06:57:13;22.85;;;9.80;;
68140;SDS011;54941;52.220;104.306;2023-05-10T06:59:39;18.75;;;10.02;;
68140;SDS011;54941;52.220;104.306;2023-05-10T07:02:06;21.77;;;10.77;;
68140;SDS011;54941;52.220;104.306;2023-05-10T07:04:32;20.10;;;9.60;;
68140;SDS011;54941;52.220;104.306;2023-05-10T07:06:58;19.83;;;9.48;;
68140;SDS011;54941;52.220;104.306;2023-05-10T07:09:24;18.80;;;8.85;;
68140;SDS011;54941;52.220;104.306;2023-05-10T07:11:52;16.50;;;8.27;;
68140;SDS011;54941;52.220;104.306;2023-05-10T07:14:19;14.75;;;8.75;;
68140;SDS011;54941;52.220;104.306;2023-05-10T07:16:45;15.95;;;8.93;;
68140;SDS011;54941;52.220;104.306;2023-05-10T07:19:11;16.90;;;9.02;;
68140;SDS011;54941;52.220;104.306;2023-05-10T07:21:37;16.05;;;8.10;;
68140;SDS011;54941;52.220;104.306;2023-05-10T07:24:04;16.35;;;8.60;;
68140;SDS011;54941;52.220;104.306;2023-05-10T07:26:30;16.42;;;8.55;;
68140;SDS011;54941;52.220;104.306;2023-05-10T07:28:58;17.35;;;9.48;;
68140;SDS011;54941;52.220;104.306;2023-05-10T07:31:24;17.80;;;9.25;;
68140;SDS011;54941;52.220;104.306;2023-05-10T07:33:51;15.45;;;8.70;;
68140;SDS011;54941;52.220;104.306;2023-05-10T07:36:17;14.13;;;8.15;;
68140;SDS011;54941;52.220;104.306;2023-05-10T07:38:43;17.42;;;8.77;;
68140;SDS011;54941;52.220;104.306;2023-05-10T07:41:11;13.80;;;8.32;;
68140;SDS011;54941;52.220;104.306;2023-05-10T07:43:37;15.00;;;9.00;;
68140;SDS011;54941;52.220;104.306;2023-05-10T07:46:05;18.33;;;8.75;;
68140;SDS011;54941;52.220;104.306;2023-05-10T07:48:31;14.73;;;8.95;;
68140;SDS011;54941;52.220;104.306;2023-05-10T07:50:58;16.10;;;8.90;;
68140;SDS011;54941;52.220;104.306;2023-05-10T07:53:25;15.20;;;8.65;;
68140;SDS011;54941;52.220;104.306;2023-05-10T07:55:52;16.25;;;8.85;;
68140;SDS011;54941;52.220;104.306;2023-05-10T07:58:23;15.98;;;9.10;;
68140;SDS011;54941;52.220;104.306;2023-05-10T08:00:50;16.65;;;9.18;;
68140;SDS011;54941;52.220;104.306;2023-05-10T08:03:17;16.25;;;8.50;;
68140;SDS011;54941;52.220;104.306;2023-05-10T08:05:44;19.35;;;8.75;;
68140;SDS011;54941;52.220;104.306;2023-05-10T08:08:10;18.65;;;9.52;;
68140;SDS011;54941;52.220;104.306;2023-05-10T08:10:36;20.23;;;9.35;;
68140;SDS011;54941;52.220;104.306;2023-05-10T08:13:02;18.92;;;9.48;;
68140;SDS011;54941;52.220;104.306;2023-05-10T08:15:29;19.08;;;9.15;;
68140;SDS011;54941;52.220;104.306;2023-05-10T08:17:55;19.92;;;9.50;;
68140;SDS011;54941;52.220;104.306;2023-05-10T08:20:23;18.17;;;8.73;;
68140;SDS011;54941;52.220;104.306;2023-05-10T08:22:49;15.43;;;8.98;;
68140;SDS011;54941;52.220;104.306;2023-05-10T08:25:16;15.50;;;8.13;;
68140;SDS011;54941;52.220;104.306;2023-05-10T08:27:42;17.67;;;8.63;;
68140;SDS011;54941;52.220;104.306;2023-05-10T08:30:09;15.73;;;8.15;;
68140;SDS011;54941;52.220;104.306;2023-05-10T08:32:35;15.02;;;8.07;;
68140;SDS011;54941;52.220;104.306;2023-05-10T08:35:01;17.08;;;9.15;;
68140;SDS011;54941;52.220;104.306;2023-05-10T08:37:32;20.40;;;8.88;;
68140;SDS011;54941;52.220;104.306;2023-05-10T08:39:59;15.60;;;8.30;;
68140;SDS011;54941;52.220;104.306;2023-05-10T08:42:25;18.50;;;9.02;;
68140;SDS011;54941;52.220;104.306;2023-05-10T08:44:55;15.00;;;8.88;;
68140;SDS011;54941;52.220;104.306;2023-05-10T08:47:23;15.68;;;8.25;;
68140;SDS011;54941;52.220;104.306;2023-05-10T08:49:51;17.13;;;8.50;;
68140;SDS011;54941;52.220;104.306;2023-05-10T08:52:19;14.25;;;7.70;;
68140;SDS011;54941;52.220;104.306;2023-05-10T08:54:48;15.80;;;8.07;;
68140;SDS011;54941;52.220;104.306;2023-05-10T08:57:15;14.13;;;7.47;;
68140;SDS011;54941;52.220;104.306;2023-05-10T08:59:41;13.18;;;7.45;;
68140;SDS011;54941;52.220;104.306;2023-05-10T09:02:08;18.08;;;8.25;;
68140;SDS011;54941;52.220;104.306;2023-05-10T09:04:37;17.98;;;8.13;;
68140;SDS011;54941;52.220;104.306;2023-05-10T09:07:03;14.00;;;7.68;;
68140;SDS011;54941;52.220;104.306;2023-05-10T09:09:30;12.05;;;7.65;;
68140;SDS011;54941;52.220;104.306;2023-05-10T09:11:58;13.77;;;7.38;;
68140;SDS011;54941;52.220;104.306;2023-05-10T09:14:25;14.60;;;8.05;;
68140;SDS011;54941;52.220;104.306;2023-05-10T09:16:52;14.35;;;7.97;;
68140;SDS011;54941;52.220;104.306;2023-05-10T09:19:19;17.27;;;8.75;;
68140;SDS011;54941;52.220;104.306;2023-05-10T09:21:45;14.23;;;8.05;;
68140;SDS011;54941;52.220;104.306;2023-05-10T09:24:12;15.82;;;8.35;;
68140;SDS011;54941;52.220;104.306;2023-05-10T09:26:45;13.10;;;7.95;;
68140;SDS011;54941;52.220;104.306;2023-05-10T09:29:14;16.95;;;8.60;;
68140;SDS011;54941;52.220;104.306;2023-05-10T09:31:43;17.13;;;8.57;;
68140;SDS011;54941;52.220;104.306;2023-05-10T09:34:10;18.00;;;8.35;;
68140;SDS011;54941;52.220;104.306;2023-05-10T09:36:37;15.80;;;8.88;;
68140;SDS011;54941;52.220;104.306;2023-05-10T09:39:16;16.80;;;8.75;;
68140;SDS011;54941;52.220;104.306;2023-05-10T09:41:42;15.23;;;8.30;;
68140;SDS011;54941;52.220;104.306;2023-05-10T09:44:09;19.00;;;8.55;;
68140;SDS011;54941;52.220;104.306;2023-05-10T09:46:37;14.15;;;8.20;;
68140;SDS011;54941;52.220;104.306;2023-05-10T09:49:03;14.63;;;7.80;;
68140;SDS011;54941;52.220;104.306;2023-05-10T09:51:31;16.42;;;8.63;;
68140;SDS011;54941;52.220;104.306;2023-05-10T09:54:08;16.77;;;9.32;;
68140;SDS011;54941;52.220;104.306;2023-05-10T09:56:35;16.85;;;8.50;;
68140;SDS011;54941;52.220;104.306;2023-05-10T09:59:02;15.05;;;8.18;;
68140;SDS011;54941;52.220;104.306;2023-05-10T10:01:29;16.55;;;9.15;;
68140;SDS011;54941;52.220;104.306;2023-05-10T10:03:57;15.25;;;8.88;;
68140;SDS011;54941;52.220;104.306;2023-05-10T10:06:23;16.17;;;9.25;;
68140;SDS011;54941;52.220;104.306;2023-05-10T10:08:50;15.85;;;9.13;;
68140;SDS011;54941;52.220;104.306;2023-05-10T10:11:16;15.48;;;8.48;;
68140;SDS011;54941;52.220;104.306;2023-05-10T10:13:43;17.13;;;9.10;;
68140;SDS011;54941;52.220;104.306;2023-05-10T10:16:10;16.85;;;8.63;;
68140;SDS011;54941;52.220;104.306;2023-05-10T10:18:36;17.85;;;9.80;;
68140;SDS011;54941;52.220;104.306;2023-05-10T10:21:04;16.70;;;8.85;;
68140;SDS011;54941;52.220;104.306;2023-05-10T10:23:31;17.92;;;9.30;;
68140;SDS011;54941;52.220;104.306;2023-05-10T10:25:57;17.38;;;10.27;;
68140;SDS011;54941;52.220;104.306;2023-05-10T10:28:26;17.73;;;9.18;;
68140;SDS011;54941;52.220;104.306;2023-05-10T10:31:02;15.85;;;8.18;;
68140;SDS011;54941;52.220;104.306;2023-05-10T10:36:24;15.27;;;8.50;;
68140;SDS011;54941;52.220;104.306;2023-05-10T10:38:54;12.85;;;7.35;;
68140;SDS011;54941;52.220;104.306;2023-05-10T10:41:27;13.43;;;7.70;;
68140;SDS011;54941;52.220;104.306;2023-05-10T10:46:58;14.57;;;8.02;;
68140;SDS011;54941;52.220;104.306;2023-05-10T10:49:26;13.57;;;7.78;;
68140;SDS011;54941;52.220;104.306;2023-05-10T10:54:50;12.45;;;7.10;;
68140;SDS011;54941;52.220;104.306;2023-05-10T10:57:17;14.60;;;7.85;;
68140;SDS011;54941;52.220;104.306;2023-05-10T10:59:45;12.75;;;6.97;;
68140;SDS011;54941;52.220;104.306;2023-05-10T11:02:17;14.13;;;7.75;;
68140;SDS011;54941;52.220;104.306;2023-05-10T11:04:58;14.68;;;7.90;;
68140;SDS011;54941;52.220;104.306;2023-05-10T11:07:26;16.17;;;8.32;;
68140;SDS011;54941;52.220;104.306;2023-05-10T11:09:53;13.75;;;8.02;;
68140;SDS011;54941;52.220;104.306;2023-05-10T11:15:16;14.07;;;8.73;;
68140;SDS011;54941;52.220;104.306;2023-05-10T11:17:43;15.75;;;9.27;;
68140;SDS011;54941;52.220;104.306;2023-05-10T11:20:10;15.38;;;9.55;;
68140;SDS011;54941;52.220;104.306;2023-05-10T11:22:51;14.98;;;9.25;;
68140;SDS011;54941;52.220;104.306;2023-05-10T11:25:18;15.23;;;9.00;;
68140;SDS011;54941;52.220;104.306;2023-05-10T11:27:47;14.55;;;9.18;;
68140;SDS011;54941;52.220;104.306;2023-05-10T11:30:14;16.50;;;8.48;;
68140;SDS011;54941;52.220;104.306;2023-05-10T11:32:40;17.52;;;9.65;;
68140;SDS011;54941;52.220;104.306;2023-05-10T11:35:07;18.23;;;9.73;;
68140;SDS011;54941;52.220;104.306;2023-05-10T11:37:34;15.32;;;8.77;;
68140;SDS011;54941;52.220;104.306;2023-05-10T11:40:02;17.10;;;9.27;;
68140;SDS011;54941;52.220;104.306;2023-05-10T11:42:29;20.45;;;10.88;;
68140;SDS011;54941;52.220;104.306;2023-05-10T11:44:56;18.27;;;10.95;;
68140;SDS011;54941;52.220;104.306;2023-05-10T11:47:22;21.38;;;12.20;;
68140;SDS011;54941;52.220;104.306;2023-05-10T11:49:49;25.15;;;13.43;;
68140;SDS011;54941;52.220;104.306;2023-05-10T11:52:15;20.67;;;11.52;;
68140;SDS011;54941;52.220;104.306;2023-05-10T11:54:50;22.15;;;11.95;;
68140;SDS011;54941;52.220;104.306;2023-05-10T11:57:19;20.98;;;12.05;;
68140;SDS011;54941;52.220;104.306;2023-05-10T12:02:12;24.98;;;13.98;;
68140;SDS011;54941;52.220;104.306;2023-05-10T12:04:39;24.02;;;13.98;;
68140;SDS011;54941;52.220;104.306;2023-05-10T12:07:07;25.83;;;13.45;;
68140;SDS011;54941;52.220;104.306;2023-05-10T12:09:33;22.92;;;12.82;;
68140;SDS011;54941;52.220;104.306;2023-05-10T12:12:00;24.70;;;12.50;;
68140;SDS011;54941;52.220;104.306;2023-05-10T12:14:29;22.13;;;12.05;;
68140;SDS011;54941;52.220;104.306;2023-05-10T12:17:00;21.50;;;12.02;;
68140;SDS011;54941;52.220;104.306;2023-05-10T12:19:26;21.33;;;12.38;;
68140;SDS011;54941;52.220;104.306;2023-05-10T12:21:53;24.33;;;12.93;;
68140;SDS011;54941;52.220;104.306;2023-05-10T12:24:19;23.23;;;13.43;;
68140;SDS011;54941;52.220;104.306;2023-05-10T12:26:45;22.77;;;12.43;;
68140;SDS011;54941;52.220;104.306;2023-05-10T12:29:12;22.65;;;13.05;;
68140;SDS011;54941;52.220;104.306;2023-05-10T12:34:26;25.08;;;13.73;;
68140;SDS011;54941;52.220;104.306;2023-05-10T12:36:55;25.60;;;14.25;;
68140;SDS011;54941;52.220;104.306;2023-05-10T12:39:22;24.92;;;14.60;;
68140;SDS011;54941;52.220;104.306;2023-05-10T12:41:48;25.42;;;14.80;;
68140;SDS011;54941;52.220;104.306;2023-05-10T12:44:15;27.70;;;15.43;;
68140;SDS011;54941;52.220;104.306;2023-05-10T12:46:41;28.30;;;14.93;;
68140;SDS011;54941;52.220;104.306;2023-05-10T12:49:09;25.85;;;14.30;;
68140;SDS011;54941;52.220;104.306;2023-05-10T12:51:35;29.35;;;16.23;;
68140;SDS011;54941;52.220;104.306;2023-05-10T12:54:02;30.17;;;16.90;;
68140;SDS011;54941;52.220;104.306;2023-05-10T12:56:28;29.45;;;16.02;;
68140;SDS011;54941;52.220;104.306;2023-05-10T12:58:54;30.88;;;16.10;;
68140;SDS011;54941;52.220;104.306;2023-05-10T13:01:21;28.50;;;15.73;;
68140;SDS011;54941;52.220;104.306;2023-05-10T13:03:47;28.95;;;16.52;;
68140;SDS011;54941;52.220;104.306;2023-05-10T13:06:15;32.33;;;16.85;;
68140;SDS011;54941;52.220;104.306;2023-05-10T13:08:41;29.08;;;16.27;;
68140;SDS011;54941;52.220;104.306;2023-05-10T13:11:07;30.48;;;16.63;;
68140;SDS011;54941;52.220;104.306;2023-05-10T13:13:34;29.30;;;16.63;;
68140;SDS011;54941;52.220;104.306;2023-05-10T13:16:00;27.95;;;15.95;;
68140;SDS011;54941;52.220;104.306;2023-05-10T13:18:26;33.70;;;16.42;;
68140;SDS011;54941;52.220;104.306;2023-05-10T13:23:21;28.20;;;16.25;;
68140;SDS011;54941;52.220;104.306;2023-05-10T13:25:47;29.42;;;16.05;;
68140;SDS011;54941;52.220;104.306;2023-05-10T13:28:13;32.22;;;17.15;;
68140;SDS011;54941;52.220;104.306;2023-05-10T13:30:40;32.08;;;17.60;;
68140;SDS011;54941;52.220;104.306;2023-05-10T13:33:10;37.03;;;17.83;;
68140;SDS011;54941;52.220;104.306;2023-05-10T13:35:38;30.90;;;17.27;;
68140;SDS011;54941;52.220;104.306;2023-05-10T13:38:13;34.13;;;17.55;;
68140;SDS011;54941;52.220;104.306;2023-05-10T13:40:41;31.85;;;18.60;;
68140;SDS011;54941;52.220;104.306;2023-05-10T13:43:07;33.00;;;18.35;;
68140;SDS011;54941;52.220;104.306;2023-05-10T13:45:33;37.60;;;20.42;;
68140;SDS011;54941;52.220;104.306;2023-05-10T13:48:00;37.13;;;20.20;;
68140;SDS011;54941;52.220;104.306;2023-05-10T13:50:26;37.25;;;19.98;;
68140;SDS011;54941;52.220;104.306;2023-05-10T13:52:52;37.75;;;21.95;;
68140;SDS011;54941;52.220;104.306;2023-05-10T13:55:21;46.10;;;23.00;;
68140;SDS011;54941;52.220;104.306;2023-05-10T14:00:15;38.13;;;21.85;;
68140;SDS011;54941;52.220;104.306;2023-05-10T14:02:42;43.97;;;24.60;;
68140;SDS011;54941;52.220;104.306;2023-05-10T14:05:08;37.05;;;20.35;;
68140;SDS011;54941;52.220;104.306;2023-05-10T14:07:35;33.92;;;18.80;;
68140;SDS011;54941;52.220;104.306;2023-05-10T14:10:01;36.80;;;18.92;;
68140;SDS011;54941;52.220;104.306;2023-05-10T14:12:29;36.85;;;18.77;;
68140;SDS011;54941;52.220;104.306;2023-05-10T14:14:57;37.25;;;19.48;;
68140;SDS011;54941;52.220;104.306;2023-05-10T14:17:24;36.75;;;19.42;;
68140;SDS011;54941;52.220;104.306;2023-05-10T14:19:50;45.90;;;22.88;;
68140;SDS011;54941;52.220;104.306;2023-05-10T14:22:17;36.75;;;20.05;;
68140;SDS011;54941;52.220;104.306;2023-05-10T14:24:44;34.17;;;19.25;;
68140;SDS011;54941;52.220;104.306;2023-05-10T14:27:11;39.33;;;21.08;;
68140;SDS011;54941;52.220;104.306;2023-05-10T14:29:37;48.45;;;24.48;;
68140;SDS011;54941;52.220;104.306;2023-05-10T14:32:05;47.90;;;23.42;;
68140;SDS011;54941;52.220;104.306;2023-05-10T14:34:32;46.55;;;23.23;;
68140;SDS011;54941;52.220;104.306;2023-05-10T14:36:58;41.08;;;22.60;;
68140;SDS011;54941;52.220;104.306;2023-05-10T14:39:24;42.38;;;21.98;;